Terminal Aerodrome Forecast
Issued by NWS Corpus Christi, TX

Current Version | Previous Version | Text Only | Print | Product List | Glossary On
Versions: 1 2 3 4 5 6 7 8 9 10 11 12 13 14 15
000
FTUS44 KCRP 071733
TAFCRP
TAF
KCRP 071733Z 0718/0818 15022G30KT P6SM SCT025 SCT035
     FM080330 15015G19KT P6SM SCT015
     FM080600 16014G18KT P6SM BKN012
      TEMPO 0810/0814 6SM BR BKN009
     FM081500 16019G24KT P6SM SCT025 BKN035=

USA.gov is the U.S. government's official web portal to all federal, state and local government web resources and services.